logo
Search for airport 
image banner adimage banner adimage banner ad
image banner ad

SHIQ - Cuartel Gral. Vi Division De Ejercito

Located in Iquique, Chile

ICAO - SHIQ, IATA -

Data provided by Airmate  

General information

Coordinates: S20°13'48" W70°8'42"
Elevation is 26 feet MSL.
 
View others Airports in Tarapacá

Operational data

Special qualification required
Current time UTC:
Current local time:
Weather at : SCDA - Diego Aracena ( 34 km )
METAR: SCDA 161900Z 25008KT 220V290 9999 BKN026 16/09 Q1015
TAF: TAF SCDA 161627Z 1618/1718 21014KT 9999 FEW020 TX17/1618Z TN14/1710Z BECMG 1620/1622 OVC020 BECMG 1700/1702 21004KT BECMG 1704/1706 08004KT BECMG 1714/1716 27012KT FEW020
View NOTAMs / SUP AIP / TFR affecting this airport [VIEW]
Communications frequencies: [VIEW]

Runways:

Airport contact information

Address: Iquique Chile

Satellite view of SHIQ